Time;durP1;ratioP1;P1;durP2;ratioP2;P2;SDS_P1;SDS_P2;PMS_P1;PMS_P2;Temp;Humidity;BMP_temperature;BMP_pressure;BME280_temperature;BME280_humidity;BME280_pressure;Samples;Min_cycle;Max_cycle;Signal;HPM_P1;HPM_P2
2023/03/15 00:00:54;;;;;;;;;;;;;;;7.70;53.47;100177.25;4978618;28;7263;-79
2023/03/15 00:03:23;;;;;;;;;;;;;;;7.69;53.41;100178.94;4980595;28;7094;-80
2023/03/15 00:05:51;;;;;;;;;;;;;;;7.69;53.62;100185.69;4979288;28;7354;-79
2023/03/15 00:08:17;;;;;;;;;;;;;;;7.68;53.71;100174.63;4979409;28;7196;-80
2023/03/15 00:10:45;;;;;;;;;;;;;;;7.68;54.01;100176.31;4967130;28;6880;-79
2023/03/15 00:13:13;;;;;;;;;;;;;;;7.69;53.75;100178.06;4966505;28;8522;-80
2023/03/15 00:15:52;;;;;;;;;;;;;;;7.70;54.03;100173.03;4987024;28;6789;-79
2023/03/15 00:18:19;;;;;;;;;;;;;;;7.69;53.99;100180.59;4966853;28;7252;-80
2023/03/15 00:20:47;;;;;;;;;;;;;;;7.72;54.11;100179.09;4948467;28;7050;-78
2023/03/15 00:23:14;;;;;;;;;;;;;;;7.74;54.20;100180.06;4979090;28;7272;-80
2023/03/15 00:25:46;;;;;;;;;;;;;;;7.78;53.12;100197.31;4984850;28;7031;-78
2023/03/15 00:28:12;;;;;;;;;;;;;;;7.82;53.42;100202.59;4979495;28;6788;-79
2023/03/15 00:30:38;;;;;;;;;;;;;;;7.85;53.33;100203.63;4969829;28;7381;-80
2023/03/15 00:33:04;;;;;;;;;;;;;;;7.90;53.39;100206.44;4984044;28;7951;-78
2023/03/15 00:35:33;;;;;;;;;;;;;;;7.85;52.95;100224.06;4983552;28;6983;-80
2023/03/15 00:37:59;;;;;;;;;;;;;;;7.80;53.40;100220.34;4979252;28;7205;-79
2023/03/15 00:40:25;;;;;;;;;;;;;;;7.72;53.99;100221.59;4964645;28;7867;-80
2023/03/15 00:42:51;;;;;;;;;;;;;;;7.63;53.20;100225.41;4961560;28;7187;-77
2023/03/15 00:45:20;;;;;;;;;;;;;;;7.59;53.98;100227.69;4968026;28;8576;-79
2023/03/15 00:47:50;;;;;;;;;;;;;;;7.54;53.94;100227.41;4986638;28;6792;-81
2023/03/15 00:50:16;;;;;;;;;;;;;;;7.50;54.34;100228.91;4982005;28;8849;-78
2023/03/15 00:52:42;;;;;;;;;;;;;;;7.49;54.42;100231.38;4983333;28;7257;-76
2023/03/15 00:55:12;;;;;;;;;;;;;;;7.48;54.57;100234.72;4980740;28;7283;-80
2023/03/15 00:57:40;;;;;;;;;;;;;;;7.48;54.65;100234.72;4979801;28;7009;-76
2023/03/15 01:00:14;;;;;;;;;;;;;;;7.48;54.69;100234.72;4970652;28;6808;-81
2023/03/15 01:02:40;;;;;;;;;;;;;;;7.49;54.79;100239.00;4973175;28;11401;-80
2023/03/15 01:05:08;;;;;;;;;;;;;;;7.49;55.04;100241.56;4982918;28;6989;-81
2023/03/15 01:07:34;;;;;;;;;;;;;;;7.48;54.26;100248.34;4972808;28;6820;-77
2023/03/15 01:10:02;;;;;;;;;;;;;;;7.44;55.03;100253.19;4974883;28;7154;-79
2023/03/15 01:12:31;;;;;;;;;;;;;;;7.36;54.57;100251.06;4985129;28;6876;-79
2023/03/15 01:14:57;;;;;;;;;;;;;;;7.25;54.43;100263.97;4986496;28;7200;-79
2023/03/15 01:17:23;;;;;;;;;;;;;;;7.13;54.39;100256.44;4989357;28;7159;-76
2023/03/15 01:19:50;;;;;;;;;;;;;;;7.00;54.09;100262.47;4989837;28;6815;-80
2023/03/15 01:22:17;;;;;;;;;;;;;;;6.85;53.81;100264.97;4989321;28;7213;-81
2023/03/15 01:24:43;;;;;;;;;;;;;;;6.70;54.15;100270.91;4985281;28;7292;-80
2023/03/15 01:27:11;;;;;;;;;;;;;;;6.53;53.98;100265.66;4969121;28;6990;-81
2023/03/15 01:29:37;;;;;;;;;;;;;;;6.37;53.98;100260.38;4983368;28;7034;-83
2023/03/15 01:32:03;;;;;;;;;;;;;;;6.24;54.38;100257.06;4988106;28;6768;-82
2023/03/15 01:34:28;;;;;;;;;;;;;;;6.12;54.67;100263.94;4988003;28;8688;-84
2023/03/15 01:36:54;;;;;;;;;;;;;;;6.01;55.00;100250.50;4985906;28;6792;-83
2023/03/15 01:39:20;;;;;;;;;;;;;;;5.84;54.77;100247.78;4985427;28;7240;-83
2023/03/15 01:41:46;;;;;;;;;;;;;;;5.66;55.46;100247.44;4989070;28;7938;-83
2023/03/15 01:44:14;;;;;;;;;;;;;;;5.56;55.70;100251.06;4975876;28;6776;-80
2023/03/15 01:46:40;;;;;;;;;;;;;;;5.48;55.93;100249.66;4972192;28;7031;-82
2023/03/15 01:49:26;;;;;;;;;;;;;;;5.42;55.67;100246.72;4984535;28;7238;-82
2023/03/15 01:52:01;;;;;;;;;;;;;;;5.37;56.14;100259.09;4988056;28;6828;-82
2023/03/15 01:54:43;;;;;;;;;;;;;;;5.35;56.55;100254.69;4984321;28;8560;-80
2023/03/15 01:57:24;;;;;;;;;;;;;;;5.34;56.96;100258.91;4970326;28;8608;-79
2023/03/15 02:00:00;;;;;;;;;;;;;;;5.37;56.78;100265.88;4990075;28;8357;-81
2023/03/15 02:02:27;;;;;;;;;;;;;;;5.38;57.08;100262.53;4975927;28;6845;-81
2023/03/15 02:05:10;;;;;;;;;;;;;;;5.39;56.90;100262.63;4970008;28;8532;-82
2023/03/15 02:07:40;;;;;;;;;;;;;;;5.40;57.11;100259.31;4975277;28;7243;-81
2023/03/15 02:10:13;;;;;;;;;;;;;;;5.42;57.04;100262.84;4981481;28;7064;-80
2023/03/15 02:12:48;;;;;;;;;;;;;;;5.42;56.65;100251.78;5009675;28;8395;-81
2023/03/15 02:15:15;;;;;;;;;;;;;;;5.41;56.87;100252.56;4966092;28;8536;-82
2023/03/15 02:17:46;;;;;;;;;;;;;;;5.39;56.67;100255.00;4983302;28;8528;-82
2023/03/15 02:20:30;;;;;;;;;;;;;;;5.38;56.94;100257.47;4984680;28;7301;-82
2023/03/15 02:23:03;;;;;;;;;;;;;;;5.35;56.64;100265.75;4969099;28;6804;-82
2023/03/15 02:26:03;;;;;;;;;;;;;;;5.32;57.05;100254.50;4987179;28;7102;-80
2023/03/15 02:28:29;;;;;;;;;;;;;;;5.28;57.53;100255.94;4976417;28;8893;-82
2023/03/15 02:30:57;;;;;;;;;;;;;;;5.29;57.58;100257.72;4990285;28;7352;-82
2023/03/15 02:33:26;;;;;;;;;;;;;;;5.32;57.94;100250.31;4989153;28;6799;-81
2023/03/15 02:35:53;;;;;;;;;;;;;;;5.35;57.71;100252.16;4989699;28;8486;-81
2023/03/15 02:38:18;;;;;;;;;;;;;;;5.35;58.03;100250.50;4990198;28;8566;-81
2023/03/15 02:40:45;;;;;;;;;;;;;;;5.40;58.09;100258.44;4969880;28;8386;-81
2023/03/15 02:43:26;;;;;;;;;;;;;;;5.40;57.67;100251.69;4969390;28;6788;-81
2023/03/15 02:45:52;;;;;;;;;;;;;;;5.42;58.17;100255.22;4991374;28;6804;-80
2023/03/15 02:48:20;;;;;;;;;;;;;;;5.46;57.71;100252.88;4989748;28;8552;-80
2023/03/15 02:50:45;;;;;;;;;;;;;;;5.45;58.11;100251.97;4981728;28;6792;-82
2023/03/15 02:53:11;;;;;;;;;;;;;;;5.48;58.03;100241.16;4989391;28;7082;-81
2023/03/15 02:55:38;;;;;;;;;;;;;;;5.50;57.91;100252.28;4982341;28;8513;-79
2023/03/15 02:58:03;;;;;;;;;;;;;;;5.53;58.00;100252.50;4992554;28;7175;-79
2023/03/15 03:00:29;;;;;;;;;;;;;;;5.53;57.94;100255.06;4973943;28;8468;-80
2023/03/15 03:02:55;;;;;;;;;;;;;;;5.56;58.50;100260.31;4992962;28;7041;-79
2023/03/15 03:05:22;;;;;;;;;;;;;;;5.60;57.99;100251.25;4974716;28;8414;-81
2023/03/15 03:07:49;;;;;;;;;;;;;;;5.63;58.25;100259.97;4997537;28;6804;-81
2023/03/15 03:10:18;;;;;;;;;;;;;;;5.67;57.97;100259.38;4997864;28;8458;-81
2023/03/15 03:12:44;;;;;;;;;;;;;;;5.71;57.89;100268.09;4997005;28;8827;-79
2023/03/15 03:15:10;;;;;;;;;;;;;;;5.73;57.94;100266.50;4994471;28;8507;-81
2023/03/15 03:17:37;;;;;;;;;;;;;;;5.75;58.31;100269.16;4973021;28;6804;-82
2023/03/15 03:20:12;;;;;;;;;;;;;;;5.76;58.32;100276.91;4979959;28;6800;-80
2023/03/15 03:22:40;;;;;;;;;;;;;;;5.76;58.63;100279.44;4986189;28;8563;-79
2023/03/15 03:25:11;;;;;;;;;;;;;;;5.80;58.19;100281.41;4987051;28;6965;-81
2023/03/15 03:27:38;;;;;;;;;;;;;;;5.80;58.29;100281.41;4988989;28;7082;-81
2023/03/15 03:30:08;;;;;;;;;;;;;;;5.83;58.33;100291.75;4992206;28;6824;-81
2023/03/15 03:32:34;;;;;;;;;;;;;;;5.83;58.02;100291.75;4987978;28;8387;-81
2023/03/15 03:35:00;;;;;;;;;;;;;;;5.81;58.08;100292.47;4989136;28;6789;-80
2023/03/15 03:37:25;;;;;;;;;;;;;;;5.83;58.16;100313.78;4986263;28;6924;-82
2023/03/15 03:39:51;;;;;;;;;;;;;;;5.84;58.03;100313.00;4972011;28;6784;-83
2023/03/15 03:42:17;;;;;;;;;;;;;;;5.86;58.16;100319.06;4989884;28;8751;-83
2023/03/15 03:44:42;;;;;;;;;;;;;;;5.90;58.18;100321.06;4985427;28;8401;-83
2023/03/15 03:47:08;;;;;;;;;;;;;;;5.90;58.07;100313.44;4982244;28;8136;-80
2023/03/15 03:49:34;;;;;;;;;;;;;;;5.86;58.31;100316.53;4991168;28;6764;-82
2023/03/15 03:52:00;;;;;;;;;;;;;;;5.82;58.14;100332.38;4981884;28;8372;-80
2023/03/15 03:54:26;;;;;;;;;;;;;;;5.83;58.28;100331.59;4970240;28;6856;-83
2023/03/15 03:56:52;;;;;;;;;;;;;;;5.78;58.26;100338.03;4986200;28;8498;-79
2023/03/15 03:59:17;;;;;;;;;;;;;;;5.76;58.25;100334.50;4967637;28;7211;-79
2023/03/15 04:01:43;;;;;;;;;;;;;;;5.72;58.58;100342.72;4978737;28;6772;-81
2023/03/15 04:04:12;;;;;;;;;;;;;;;5.70;58.46;100346.06;4960206;28;8900;-80
2023/03/15 04:06:44;;;;;;;;;;;;;;;5.70;58.47;100345.16;4977498;28;8545;-81
2023/03/15 04:09:15;;;;;;;;;;;;;;;5.74;58.76;100361.50;4983732;28;8615;-81
2023/03/15 04:11:42;;;;;;;;;;;;;;;5.76;58.62;100370.13;4982870;28;6860;-81
2023/03/15 04:14:13;;;;;;;;;;;;;;;5.79;58.69;100376.28;4965984;28;8470;-81
2023/03/15 04:16:39;;;;;;;;;;;;;;;5.83;59.01;100387.56;4983484;28;6975;-82
2023/03/15 04:19:06;;;;;;;;;;;;;;;5.86;58.92;100392.84;4982737;28;8492;-84
2023/03/15 04:21:33;;;;;;;;;;;;;;;5.90;58.33;100394.81;4969373;28;6931;-83
2023/03/15 04:24:00;;;;;;;;;;;;;;;5.96;58.54;100401.97;4970460;28;6788;-83
2023/03/15 04:26:29;;;;;;;;;;;;;;;6.01;58.65;100403.16;4967267;28;7811;-82
2023/03/15 04:28:57;;;;;;;;;;;;;;;6.05;58.72;100401.72;4987412;28;7225;-82
2023/03/15 04:31:25;;;;;;;;;;;;;;;6.09;58.50;100412.22;4974825;28;8823;-82
2023/03/15 04:33:53;;;;;;;;;;;;;;;6.12;58.22;100406.47;4981120;28;6796;-82
2023/03/15 04:36:22;;;;;;;;;;;;;;;6.13;58.32;100407.31;4967070;28;8763;-81
2023/03/15 04:38:49;;;;;;;;;;;;;;;6.16;58.25;100408.41;4986155;28;7253;-82
2023/03/15 04:41:17;;;;;;;;;;;;;;;6.18;58.72;100411.97;4976127;28;8461;-81
2023/03/15 04:43:44;;;;;;;;;;;;;;;6.21;58.66;100409.59;4987129;28;7995;-81
2023/03/15 04:46:10;;;;;;;;;;;;;;;6.24;58.34;100408.94;4985396;28;6946;-82
2023/03/15 04:48:35;;;;;;;;;;;;;;;6.26;58.52;100409.91;4985682;28;6768;-81
2023/03/15 04:51:01;;;;;;;;;;;;;;;6.27;58.38;100405.69;4983562;28;6772;-81
2023/03/15 04:53:27;;;;;;;;;;;;;;;6.27;58.12;100398.03;4987136;28;8481;-81
2023/03/15 04:55:53;;;;;;;;;;;;;;;6.25;58.19;100409.00;4963959;28;8698;-81
2023/03/15 04:58:19;;;;;;;;;;;;;;;6.22;58.35;100403.72;4964924;28;8889;-81
2023/03/15 05:00:46;;;;;;;;;;;;;;;6.19;57.93;100400.09;4966413;28;8423;-81
2023/03/15 05:03:12;;;;;;;;;;;;;;;6.14;58.11;100404.03;4967511;28;8537;-81
2023/03/15 05:05:37;;;;;;;;;;;;;;;6.08;58.14;100404.47;4965495;28;6933;-81
2023/03/15 05:08:03;;;;;;;;;;;;;;;6.04;58.17;100408.50;4984349;28;8441;-80
2023/03/15 05:10:30;;;;;;;;;;;;;;;6.00;58.05;100416.66;4978670;28;7455;-80
2023/03/15 05:12:55;;;;;;;;;;;;;;;5.97;58.23;100409.69;4975880;28;8423;-80
2023/03/15 05:15:21;;;;;;;;;;;;;;;5.94;58.38;100413.69;4972431;28;7997;-80
2023/03/15 05:17:47;;;;;;;;;;;;;;;5.91;58.18;100414.41;4985259;28;8507;-80
2023/03/15 05:20:15;;;;;;;;;;;;;;;5.89;58.69;100412.53;4972376;28;8506;-80
2023/03/15 05:22:41;;;;;;;;;;;;;;;5.86;59.08;100418.28;4986777;28;6935;-80
2023/03/15 05:25:09;;;;;;;;;;;;;;;5.89;58.94;100432.88;4970478;28;8877;-80
2023/03/15 05:27:36;;;;;;;;;;;;;;;5.88;59.07;100431.13;4966518;28;8583;-80
2023/03/15 05:30:04;;;;;;;;;;;;;;;5.89;58.65;100437.97;4968275;28;8518;-80
2023/03/15 05:32:33;;;;;;;;;;;;;;;5.93;59.03;100448.44;4983532;28;7031;-80
2023/03/15 05:35:00;;;;;;;;;;;;;;;5.99;59.54;100460.69;4987925;28;6891;-81
2023/03/15 05:37:26;;;;;;;;;;;;;;;6.05;59.23;100465.34;4988567;28;6784;-80
2023/03/15 05:39:52;;;;;;;;;;;;;;;6.11;58.96;100466.63;4978493;28;8864;-80
2023/03/15 05:42:24;;;;;;;;;;;;;;;6.20;59.27;100470.59;4990058;28;6767;-80
2023/03/15 05:44:49;;;;;;;;;;;;;;;6.22;58.50;100462.28;4989892;28;6828;-80
2023/03/15 05:47:15;;;;;;;;;;;;;;;6.25;58.53;100469.25;4984293;28;6995;-80
2023/03/15 05:49:41;;;;;;;;;;;;;;;6.24;58.63;100470.03;4965082;28;7203;-80
2023/03/15 05:52:07;;;;;;;;;;;;;;;6.22;58.75;100464.81;4989247;28;7218;-80
2023/03/15 05:54:33;;;;;;;;;;;;;;;6.19;58.85;100469.72;4988294;28;6772;-80
2023/03/15 05:56:58;;;;;;;;;;;;;;;6.18;58.39;100467.06;4973380;28;7678;-80
2023/03/15 05:59:24;;;;;;;;;;;;;;;6.14;59.04;100465.97;4990762;28;7885;-80
2023/03/15 06:01:49;;;;;;;;;;;;;;;6.11;58.95;100478.50;4984520;28;6787;-80
2023/03/15 06:04:15;;;;;;;;;;;;;;;6.07;58.81;100485.03;4987870;28;6776;-80
2023/03/15 06:06:41;;;;;;;;;;;;;;;6.06;58.88;100487.47;4990045;28;6772;-80
2023/03/15 06:09:06;;;;;;;;;;;;;;;6.05;58.94;100495.88;4992076;28;6768;-79
2023/03/15 06:11:32;;;;;;;;;;;;;;;6.04;58.92;100504.31;4984069;28;8671;-79
2023/03/15 06:13:58;;;;;;;;;;;;;;;6.04;59.24;100504.31;4963637;28;6776;-79
2023/03/15 06:16:24;;;;;;;;;;;;;;;6.06;59.05;100505.28;4973606;28;6979;-79
2023/03/15 06:18:49;;;;;;;;;;;;;;;6.06;58.97;100501.09;4986482;28;7192;-80
2023/03/15 06:21:15;;;;;;;;;;;;;;;6.07;59.29;100507.03;4987288;28;6783;-80
2023/03/15 06:23:41;;;;;;;;;;;;;;;6.09;59.37;100510.59;4977577;28;6956;-79
2023/03/15 06:26:07;;;;;;;;;;;;;;;6.13;59.37;100515.09;4982448;28;6951;-79
2023/03/15 06:28:33;;;;;;;;;;;;;;;6.17;59.51;100521.28;4986793;28;7869;-79
2023/03/15 06:31:12;;;;;;;;;;;;;;;6.23;59.81;100520.03;4945023;28;7034;-79
2023/03/15 06:33:39;;;;;;;;;;;;;;;6.31;59.68;100528.19;4968674;28;7155;-80
2023/03/15 06:36:06;;;;;;;;;;;;;;;6.37;59.72;100527.69;4962456;28;8605;-79
2023/03/15 06:38:33;;;;;;;;;;;;;;;6.42;59.18;100536.53;4981251;28;7010;-79
2023/03/15 06:41:03;;;;;;;;;;;;;;;6.47;59.80;100537.75;4984585;28;6853;-79
2023/03/15 06:43:30;;;;;;;;;;;;;;;6.56;59.99;100541.66;4983904;28;6880;-80
2023/03/15 06:45:58;;;;;;;;;;;;;;;6.64;59.24;100545.59;4950449;28;8773;-79
2023/03/15 06:48:25;;;;;;;;;;;;;;;6.67;59.53;100551.78;4979795;28;7106;-79
2023/03/15 06:50:52;;;;;;;;;;;;;;;6.74;59.30;100555.63;4987370;28;7013;-79
2023/03/15 06:53:17;;;;;;;;;;;;;;;6.81;59.12;100567.13;4970187;28;7825;-79
2023/03/15 06:55:44;;;;;;;;;;;;;;;6.88;58.91;100570.94;4986961;28;6968;-79
2023/03/15 06:58:12;;;;;;;;;;;;;;;6.92;59.00;100578.00;4973465;28;6987;-79
2023/03/15 07:00:38;;;;;;;;;;;;;;;6.93;59.04;100579.75;4981163;28;6996;-79
2023/03/15 07:03:04;;;;;;;;;;;;;;;6.92;58.49;100578.00;4963071;28;7067;-79
2023/03/15 07:05:30;;;;;;;;;;;;;;;6.90;58.99;100585.53;4974988;28;6768;-79
2023/03/15 07:07:56;;;;;;;;;;;;;;;6.85;58.52;100589.47;4981514;28;6973;-79
2023/03/15 07:10:22;;;;;;;;;;;;;;;6.80;58.66;100594.25;4965806;28;7122;-79
2023/03/15 07:12:48;;;;;;;;;;;;;;;6.77;58.65;100598.25;4979151;28;7215;-77
2023/03/15 07:15:14;;;;;;;;;;;;;;;6.73;58.74;100597.16;4985663;28;7034;-76
2023/03/15 07:17:40;;;;;;;;;;;;;;;6.71;58.87;100603.81;4966142;28;7583;-76
2023/03/15 07:20:07;;;;;;;;;;;;;;;6.70;59.23;100603.72;4978121;28;6792;-76
2023/03/15 07:22:33;;;;;;;;;;;;;;;6.69;58.90;100615.59;4982729;28;6788;-76
2023/03/15 07:24:59;;;;;;;;;;;;;;;6.68;59.18;100616.38;4986109;28;7179;-76
2023/03/15 07:27:25;;;;;;;;;;;;;;;6.69;59.00;100618.13;4968544;28;10018;-76
2023/03/15 07:29:50;;;;;;;;;;;;;;;6.71;59.02;100619.09;4972193;28;7144;-76
2023/03/15 07:32:16;;;;;;;;;;;;;;;6.73;58.95;100625.19;4979263;28;7289;-76
2023/03/15 07:34:42;;;;;;;;;;;;;;;6.75;59.57;100633.81;4982746;28;7175;-76
2023/03/15 07:37:08;;;;;;;;;;;;;;;6.78;59.33;100635.69;4980252;28;6826;-76
2023/03/15 07:39:34;;;;;;;;;;;;;;;6.81;59.80;100638.47;4971536;28;7236;-76
2023/03/15 07:41:59;;;;;;;;;;;;;;;6.84;59.37;100631.00;4981924;28;6780;-76
2023/03/15 07:44:25;;;;;;;;;;;;;;;6.91;59.75;100642.50;4986698;28;6942;-76
2023/03/15 07:46:53;;;;;;;;;;;;;;;6.94;59.68;100640.13;4971106;28;6772;-76
2023/03/15 07:49:19;;;;;;;;;;;;;;;7.00;59.42;100645.66;4953100;28;7261;-76
2023/03/15 07:51:45;;;;;;;;;;;;;;;7.06;60.27;100647.72;4984037;28;6772;-76
2023/03/15 07:54:10;;;;;;;;;;;;;;;7.13;60.05;100657.53;4987197;28;6780;-76
2023/03/15 07:56:36;;;;;;;;;;;;;;;7.21;59.89;100658.94;4984394;28;7006;-76
2023/03/15 07:59:01;;;;;;;;;;;;;;;7.34;60.31;100669.94;4985315;28;6768;-76
2023/03/15 08:01:27;;;;;;;;;;;;;;;7.47;60.04;100671.63;4977044;28;7642;-76
2023/03/15 08:03:53;;;;;;;;;;;;;;;7.61;59.78;100681.03;4985047;28;6800;-76
2023/03/15 08:06:19;;;;;;;;;;;;;;;7.70;60.01;100678.19;4977914;28;7323;-76
2023/03/15 08:08:45;;;;;;;;;;;;;;;7.76;59.41;100677.72;4977811;28;6948;-76
2023/03/15 08:11:11;;;;;;;;;;;;;;;7.80;59.98;100679.66;4978766;28;7243;-76
2023/03/15 08:13:37;;;;;;;;;;;;;;;7.83;59.19;100690.06;4987218;28;7236;-76
2023/03/15 08:16:02;;;;;;;;;;;;;;;7.91;59.54;100695.66;4982685;28;7186;-76
2023/03/15 08:18:28;;;;;;;;;;;;;;;7.97;60.38;100698.63;4970010;28;6977;-76
2023/03/15 08:20:54;;;;;;;;;;;;;;;8.09;60.12;100698.47;4989525;28;6768;-76
2023/03/15 08:23:20;;;;;;;;;;;;;;;8.17;59.00;100698.97;4989075;28;6788;-76
2023/03/15 08:25:47;;;;;;;;;;;;;;;8.25;59.81;100705.41;4988988;28;6768;-76
2023/03/15 08:28:13;;;;;;;;;;;;;;;8.37;59.08;100707.00;4976024;28;6844;-76
2023/03/15 08:30:39;;;;;;;;;;;;;;;8.52;59.04;100717.31;4992462;28;7058;-76
2023/03/15 08:33:07;;;;;;;;;;;;;;;8.67;58.75;100722.47;4974008;28;7183;-76
2023/03/15 08:35:33;;;;;;;;;;;;;;;8.80;59.25;100734.31;4984499;28;6780;-76
2023/03/15 08:38:02;;;;;;;;;;;;;;;8.85;58.70;100738.03;4988964;28;6772;-76
2023/03/15 08:40:29;;;;;;;;;;;;;;;8.87;58.71;100741.56;4970951;28;7104;-76
2023/03/15 08:42:55;;;;;;;;;;;;;;;8.91;57.83;100743.50;4989241;28;7841;-76
2023/03/15 08:45:23;;;;;;;;;;;;;;;9.00;58.74;100744.06;4980791;28;6804;-76
2023/03/15 08:47:55;;;;;;;;;;;;;;;9.14;58.68;100744.00;4992074;28;6792;-76
2023/03/15 08:50:21;;;;;;;;;;;;;;;9.33;58.88;100739.97;4986938;28;6792;-76
2023/03/15 08:52:47;;;;;;;;;;;;;;;9.50;59.15;100741.84;4966672;28;7193;-75
2023/03/15 08:55:13;;;;;;;;;;;;;;;9.67;58.58;100745.34;4987481;28;6784;-75
2023/03/15 08:57:39;;;;;;;;;;;;;;;9.80;58.67;100739.25;4985646;28;6952;-75
2023/03/15 09:00:14;;;;;;;;;;;;;;;9.93;57.64;100745.97;4972730;28;6974;-75
2023/03/15 09:02:39;;;;;;;;;;;;;;;10.05;57.35;100753.44;4970170;28;11367;-75
2023/03/15 09:05:05;;;;;;;;;;;;;;;10.13;57.69;100752.16;4984076;28;6775;-75
2023/03/15 09:07:32;;;;;;;;;;;;;;;10.24;57.68;100746.78;4962815;28;7130;-75
2023/03/15 09:09:57;;;;;;;;;;;;;;;10.42;57.42;100755.47;4974149;28;7142;-75
2023/03/15 09:12:23;;;;;;;;;;;;;;;10.60;58.10;100753.84;4989891;28;6772;-75
2023/03/15 09:14:49;;;;;;;;;;;;;;;10.79;57.37;100758.25;4985008;28;6814;-75
2023/03/15 09:17:15;;;;;;;;;;;;;;;10.97;57.11;100754.09;4972180;28;7105;-80
2023/03/15 09:19:40;;;;;;;;;;;;;;;11.06;56.35;100750.25;4989331;28;7794;-82
2023/03/15 09:22:06;;;;;;;;;;;;;;;11.10;55.95;100759.84;4987018;28;6831;-83
2023/03/15 09:24:32;;;;;;;;;;;;;;;11.15;56.07;100766.13;4988240;28;6780;-81
2023/03/15 09:26:57;;;;;;;;;;;;;;;11.24;55.86;100764.03;4975587;28;6940;-79
2023/03/15 09:29:23;;;;;;;;;;;;;;;11.34;55.26;100767.06;4990829;28;7960;-83
2023/03/15 09:31:49;;;;;;;;;;;;;;;11.42;54.72;100770.00;4986780;28;8028;-77
2023/03/15 09:34:14;;;;;;;;;;;;;;;11.49;54.30;100772.06;4973967;28;7327;-81
2023/03/15 09:36:40;;;;;;;;;;;;;;;11.55;54.27;100772.41;4967728;28;7174;-82
2023/03/15 09:39:07;;;;;;;;;;;;;;;11.63;54.45;100776.19;4968659;28;8422;-80
2023/03/15 09:41:46;;;;;;;;;;;;;;;11.70;54.10;100774.84;4962417;28;6992;-82
2023/03/15 09:44:47;;;;;;;;;;;;;;;11.79;53.69;100766.69;4990297;28;7853;-75
2023/03/15 09:47:30;;;;;;;;;;;;;;;11.87;52.91;100767.06;4982536;28;6858;-80
2023/03/15 09:50:18;;;;;;;;;;;;;;;11.95;52.84;100768.31;4986839;28;8103;-80
2023/03/15 09:52:51;;;;;;;;;;;;;;;12.03;52.70;100772.16;4968820;28;7035;-83
2023/03/15 09:55:20;;;;;;;;;;;;;;;12.05;51.88;100778.25;4965740;28;7704;-79
2023/03/15 09:58:17;;;;;;;;;;;;;;;12.04;51.23;100773.94;4988721;28;7234;-81
2023/03/15 10:00:55;;;;;;;;;;;;;;;12.05;51.11;100765.41;4961490;28;7547;-83
2023/03/15 10:03:48;;;;;;;;;;;;;;;12.03;51.08;100761.03;4985454;28;7786;-82
2023/03/15 10:06:28;;;;;;;;;;;;;;;11.93;50.45;100767.38;4984034;28;6868;-78
2023/03/15 10:09:05;;;;;;;;;;;;;;;11.86;50.19;100768.75;4984682;28;7339;-83
2023/03/15 10:11:48;;;;;;;;;;;;;;;11.80;50.06;100773.59;4974950;28;7230;-82
2023/03/15 10:14:24;;;;;;;;;;;;;;;11.80;49.53;100783.88;4972261;28;6832;-82
2023/03/15 10:16:51;;;;;;;;;;;;;;;11.77;49.84;100778.59;4987697;28;6934;-83
2023/03/15 10:19:48;;;;;;;;;;;;;;;11.85;49.66;100782.41;4968068;28;8476;-83
2023/03/15 10:22:49;;;;;;;;;;;;;;;12.07;50.46;100784.38;4983830;28;7171;-82
2023/03/15 10:25:26;;;;;;;;;;;;;;;12.25;49.35;100777.47;4983951;28;7298;-83
2023/03/15 10:28:09;;;;;;;;;;;;;;;12.33;49.02;100784.72;4973364;28;8668;-79
2023/03/15 10:30:39;;;;;;;;;;;;;;;12.35;48.70;100775.38;4983192;28;7410;-82
2023/03/15 10:33:36;;;;;;;;;;;;;;;12.31;48.85;100777.72;4968451;28;9257;-83
2023/03/15 10:36:17;;;;;;;;;;;;;;;12.19;49.18;100776.34;4984598;28;7384;-80
2023/03/15 10:38:44;;;;;;;;;;;;;;;12.15;49.57;100778.69;4972923;28;7205;-83
2023/03/15 10:41:25;;;;;;;;;;;;;;;12.46;51.04;100778.47;4984036;28;6856;-80
2023/03/15 10:44:03;;;;;;;;;;;;;;;13.66;50.30;100786.25;4972048;28;6887;-82
2023/03/15 10:46:29;;;;;;;;;;;;;;;14.56;48.23;100774.28;4988838;28;6887;-81
2023/03/15 10:48:58;;;;;;;;;;;;;;;14.88;46.90;100770.31;4985458;28;8092;-80
2023/03/15 10:51:29;;;;;;;;;;;;;;;15.13;45.79;100772.94;4984348;28;7043;-81
2023/03/15 10:54:01;;;;;;;;;;;;;;;15.45;45.03;100774.88;4971110;28;6796;-80
2023/03/15 10:56:34;;;;;;;;;;;;;;;16.07;44.94;100765.69;5004881;28;8508;-76
2023/03/15 10:59:00;;;;;;;;;;;;;;;16.56;44.28;100775.78;4976504;28;7081;-81
2023/03/15 11:01:33;;;;;;;;;;;;;;;16.57;43.21;100774.94;4968874;28;8425;-82
2023/03/15 11:04:16;;;;;;;;;;;;;;;16.36;42.80;100781.25;4983816;28;8447;-82
2023/03/15 11:06:48;;;;;;;;;;;;;;;16.07;42.66;100786.38;4989227;28;7206;-82
2023/03/15 11:09:19;;;;;;;;;;;;;;;15.72;42.65;100797.31;4968579;28;6995;-81
2023/03/15 11:12:00;;;;;;;;;;;;;;;15.30;42.25;100792.41;4978483;28;8441;-81
2023/03/15 11:14:39;;;;;;;;;;;;;;;14.86;42.83;100794.34;4964231;28;6972;-77
2023/03/15 11:17:14;;;;;;;;;;;;;;;14.61;42.14;100797.69;4954956;28;8551;-80
2023/03/15 11:20:22;;;;;;;;;;;;;;;14.41;42.89;100808.13;4988425;28;6888;-75
2023/03/15 11:22:46;;;;;;;;;;;;;;;14.27;43.28;100802.41;4985189;28;6879;-76
2023/03/15 11:25:17;;;;;;;;;;;;;;;14.74;43.97;100808.50;4984481;28;7809;-76
2023/03/15 11:27:49;;;;;;;;;;;;;;;15.86;43.37;100810.69;4964289;28;6984;-76
2023/03/15 11:30:17;;;;;;;;;;;;;;;17.27;42.49;100808.84;4978709;28;7384;-76
2023/03/15 11:32:45;;;;;;;;;;;;;;;18.63;40.43;100806.94;4965855;28;7301;-76
2023/03/15 11:35:39;;;;;;;;;;;;;;;19.97;38.96;100808.59;4981731;28;6788;-76
2023/03/15 11:38:23;;;;;;;;;;;;;;;20.93;37.16;100802.97;4997508;28;7018;-76
2023/03/15 11:40:55;;;;;;;;;;;;;;;20.86;36.26;100809.84;4980461;28;7051;-76
2023/03/15 11:43:49;;;;;;;;;;;;;;;20.51;36.14;100808.47;4984300;28;6815;-76
2023/03/15 11:47:24;;;;;;;;;;;;;;;19.66;36.18;100825.38;4962309;28;8127;-76
2023/03/15 11:49:52;;;;;;;;;;;;;;;18.73;36.53;100825.34;4923048;29;6849;-76
2023/03/15 11:52:23;;;;;;;;;;;;;;;18.18;36.41;100823.28;4978257;28;6944;-76
2023/03/15 11:54:50;;;;;;;;;;;;;;;18.25;35.97;100832.06;4975322;28;7209;-75
2023/03/15 11:57:28;;;;;;;;;;;;;;;18.92;35.35;100817.91;4967741;28;7010;-75
2023/03/15 12:00:30;;;;;;;;;;;;;;;19.12;34.61;100820.06;4993532;28;7394;-75
2023/03/15 12:03:18;;;;;;;;;;;;;;;18.65;34.55;100818.22;4969857;28;12234;-75
2023/03/15 12:06:10;;;;;;;;;;;;;;;18.15;35.29;100817.13;4978403;28;7277;-76
2023/03/15 12:08:54;;;;;;;;;;;;;;;18.00;35.69;100817.59;4988052;28;6808;-75
2023/03/15 12:11:20;;;;;;;;;;;;;;;17.55;35.46;100827.72;4969075;28;7156;-76
2023/03/15 12:13:57;;;;;;;;;;;;;;;17.03;36.08;100827.19;4987279;28;7201;-75
2023/03/15 12:16:38;;;;;;;;;;;;;;;16.91;36.61;100823.38;4988867;28;6922;-75
2023/03/15 12:19:19;;;;;;;;;;;;;;;17.40;36.39;100827.34;4983046;28;6812;-75
2023/03/15 12:22:00;;;;;;;;;;;;;;;18.26;36.05;100815.66;4967775;28;6808;-75
2023/03/15 12:24:34;;;;;;;;;;;;;;;18.78;34.80;100811.56;4973113;28;7044;-75
2023/03/15 12:27:15;;;;;;;;;;;;;;;19.38;34.77;100806.69;4977438;28;7018;-75
2023/03/15 12:29:44;;;;;;;;;;;;;;;20.16;33.32;100801.06;4972580;28;7228;-75
2023/03/15 12:32:17;;;;;;;;;;;;;;;20.90;32.64;100798.59;4977332;28;7338;-74
2023/03/15 12:34:47;;;;;;;;;;;;;;;21.53;31.87;100805.31;4962927;28;6983;-74
2023/03/15 12:37:21;;;;;;;;;;;;;;;21.44;31.44;100800.00;4968672;28;7682;-74
2023/03/15 12:39:50;;;;;;;;;;;;;;;20.85;31.91;100804.59;4986898;28;6812;-74
2023/03/15 12:42:28;;;;;;;;;;;;;;;20.04;31.79;100799.16;4983398;28;6780;-74
2023/03/15 12:44:53;;;;;;;;;;;;;;;19.18;32.37;100794.22;4983623;28;6764;-74
2023/03/15 12:47:19;;;;;;;;;;;;;;;18.38;32.93;100799.50;4985388;28;6923;-74
2023/03/15 12:49:45;;;;;;;;;;;;;;;17.75;33.42;100804.91;4971735;28;6839;-74
2023/03/15 12:52:10;;;;;;;;;;;;;;;17.26;33.36;100801.94;4990026;28;7119;-74
2023/03/15 12:55:00;;;;;;;;;;;;;;;16.90;33.59;100805.22;4991058;28;6784;-74
2023/03/15 12:57:58;;;;;;;;;;;;;;;16.57;34.30;100803.41;4982572;28;7206;-74
2023/03/15 13:00:29;;;;;;;;;;;;;;;16.34;34.58;100803.59;4963313;28;8801;-75
2023/03/15 13:03:18;;;;;;;;;;;;;;;16.15;34.83;100802.13;4971223;28;6804;-74
2023/03/15 13:06:04;;;;;;;;;;;;;;;16.03;34.53;100810.38;4986047;28;7216;-74
2023/03/15 13:08:46;;;;;;;;;;;;;;;15.87;34.75;100804.69;4987359;28;6796;-74